Time;durP1;ratioP1;P1;durP2;ratioP2;P2;SDS_P1;SDS_P2;PMS_P1;PMS_P2;Temp;Humidity;BMP_temperature;BMP_pressure;BME280_temperature;BME280_humidity;BME280_pressure;Samples;Min_cycle;Max_cycle;Signal;HPM_P1;HPM_P2
2023/04/25 00:01:18;;;;;;;13.45;10.43;;;;;;;14.52;85.97;99714.09;10251591;29;20538;-72
2023/04/25 00:06:19;;;;;;;15.57;11.40;;;;;;;14.55;86.31;99732.38;10251766;29;20039;-73
2023/04/25 00:11:20;;;;;;;15.48;11.38;;;;;;;14.20;86.60;99692.50;10251233;29;20487;-72
2023/04/25 00:16:21;;;;;;;15.75;10.80;;;;;;;14.40;87.03;99745.94;10250795;29;20085;-73
2023/04/25 00:21:24;;;;;;;15.57;10.55;;;;;;;14.54;87.52;99778.84;10250969;29;20098;-73
2023/04/25 00:26:25;;;;;;;14.68;11.35;;;;;;;13.96;87.97;99706.50;10279019;28;20042;-72
2023/04/25 00:31:25;;;;;;;13.07;11.18;;;;;;;13.87;88.08;99709.38;10290577;28;20521;-72
2023/04/25 00:36:27;;;;;;;16.23;11.57;;;;;;;13.80;88.34;99707.75;10290974;28;20050;-72
2023/04/25 00:41:29;;;;;;;16.60;12.05;;;;;;;13.98;88.71;99739.19;10267045;28;20413;-73
2023/04/25 00:46:31;;;;;;;12.30;11.00;;;;;;;13.47;89.30;99657.81;10250704;29;20051;-73
2023/04/25 00:51:33;;;;;;;14.10;11.60;;;;;;;14.09;89.77;99763.41;10251202;29;20086;-73
2023/04/25 00:56:34;;;;;;;16.27;13.77;;;;;;;14.31;89.22;99811.31;10250547;29;20138;-73
2023/04/25 01:01:35;;;;;;;16.83;14.30;;;;;;;14.04;89.22;99767.72;10255673;28;20137;-72
2023/04/25 01:06:36;;;;;;;16.55;14.30;;;;;;;14.28;89.40;99822.41;10257456;29;20043;-72
2023/04/25 01:11:37;;;;;;;19.02;14.98;;;;;;;14.23;89.59;99823.00;10257109;29;20035;-73
2023/04/25 01:16:38;;;;;;;18.08;15.65;;;;;;;14.23;89.86;99825.66;10257217;29;20483;-73
2023/04/25 01:21:39;;;;;;;18.75;16.33;;;;;;;14.14;90.18;99822.38;10257820;29;20086;-72
2023/04/25 01:26:44;;;;;;;18.92;16.67;;;;;;;14.04;90.62;99824.63;10256879;29;20499;-73
2023/04/25 01:31:46;;;;;;;18.90;16.25;;;;;;;14.02;90.42;99828.53;10255791;28;20411;-72
2023/04/25 01:36:50;;;;;;;19.92;16.27;;;;;;;13.96;91.04;99816.81;10256502;29;20039;-72
2023/04/25 01:41:51;;;;;;;;;;;;;;;14.17;89.31;99834.50;10279199;28;20097;-72
2023/04/25 01:46:52;;;;;;;21.42;16.77;;;;;;;14.10;89.85;99844.38;10296509;28;19980;-72
2023/04/25 01:51:53;;;;;;;20.13;16.42;;;;;;;14.08;90.34;99849.06;10295123;28;20042;-72
2023/04/25 01:56:57;;;;;;;20.42;16.98;;;;;;;13.98;91.76;99857.50;10278124;28;20047;-72
2023/04/25 02:01:58;;;;;;;21.05;17.15;;;;;;;13.89;91.40;99872.06;10295512;28;20042;-72
2023/04/25 02:06:58;;;;;;;23.05;17.08;;;;;;;13.41;91.62;99805.38;10295197;28;20043;-72
2023/04/25 02:12:00;;;;;;;19.55;16.60;;;;;;;13.70;91.76;99846.94;10276875;28;20496;-72
2023/04/25 02:17:00;;;;;;;19.08;16.45;;;;;;;13.83;92.09;99872.84;10295107;28;20126;-71
2023/04/25 02:22:01;;;;;;;19.50;15.90;;;;;;;13.82;92.20;99873.84;10294108;28;20053;-72
2023/04/25 02:27:02;;;;;;;19.20;15.20;;;;;;;13.43;92.33;99816.66;10276652;28;20070;-72
2023/04/25 02:32:05;;;;;;;18.42;14.77;;;;;;;13.36;92.55;99799.81;10293452;28;20205;-72
2023/04/25 02:37:05;;;;;;;16.75;14.15;;;;;;;14.00;92.09;99883.97;10293714;28;20046;-72
2023/04/25 02:42:06;;;;;;;23.70;15.48;;;;;;;13.65;91.87;99814.69;10294203;28;20142;-72
2023/04/25 02:47:07;;;;;;;18.60;13.30;;;;;;;14.33;91.03;99897.44;10293728;28;20150;-72
2023/04/25 02:52:08;;;;;;;15.23;11.50;;;;;;;14.46;90.17;99899.28;10275783;28;20178;-71
2023/04/25 02:57:09;;;;;;;12.50;10.00;;;;;;;14.69;89.51;99896.22;10292803;28;20113;-72
2023/04/25 03:02:10;;;;;;;14.63;9.25;;;;;;;14.58;88.36;99868.28;10293079;28;20137;-72
2023/04/25 03:07:11;;;;;;;12.68;7.70;;;;;;;14.73;87.48;99897.47;10286097;28;20082;-72
2023/04/25 03:12:11;;;;;;;8.88;5.57;;;;;;;14.80;85.57;99906.31;10259612;28;20102;-72
2023/04/25 03:17:12;;;;;;;6.45;4.30;;;;;;;14.30;84.52;99839.88;10273595;28;20049;-72
2023/04/25 03:22:13;;;;;;;5.10;3.50;;;;;;;14.70;83.22;99919.28;10266301;28;20133;-72
2023/04/25 03:27:14;;;;;;;5.05;3.33;;;;;;;14.20;82.14;99846.63;10290727;28;20054;-72
2023/04/25 03:32:15;;;;;;;3.78;2.72;;;;;;;14.54;81.28;99936.56;10264775;28;20047;-73
2023/04/25 03:37:16;;;;;;;4.07;2.67;;;;;;;14.48;81.29;99939.97;10284606;28;20448;-72
2023/04/25 03:42:17;;;;;;;3.35;2.35;;;;;;;14.18;80.14;99875.38;10291380;28;20053;-71
2023/04/25 03:47:18;;;;;;;3.75;2.60;;;;;;;14.60;79.58;99941.06;10292118;28;20419;-72
2023/04/25 03:52:19;;;;;;;3.00;2.15;;;;;;;14.72;78.82;99973.38;10291615;28;20050;-72
2023/04/25 03:57:19;;;;;;;3.03;2.00;;;;;;;14.68;78.76;99975.63;10291338;28;20042;-72
2023/04/25 04:02:20;;;;;;;3.42;2.03;;;;;;;14.46;78.54;99942.06;10284500;28;20046;-72
2023/04/25 04:07:21;;;;;;;2.55;1.40;;;;;;;14.57;77.63;99958.34;10252775;28;20499;-72
2023/04/25 04:12:22;;;;;;;2.10;1.20;;;;;;;14.73;77.24;99988.38;10251371;29;20043;-72
2023/04/25 04:17:22;;;;;;;3.83;1.25;;;;;;;14.24;76.70;99893.28;10250542;29;20054;-72
2023/04/25 04:22:24;;;;;;;3.72;1.50;;;;;;;14.47;76.09;99924.97;10250354;29;20058;-71
2023/04/25 04:27:25;;;;;;;3.00;1.40;;;;;;;14.37;75.26;99899.47;10251525;29;20130;-72
2023/04/25 04:32:27;;;;;;;2.35;1.10;;;;;;;14.85;75.06;99976.06;10233598;28;20477;-72
2023/04/25 04:37:28;;;;;;;1.50;0.90;;;;;;;14.52;74.60;99926.03;10257014;29;20069;-72
2023/04/25 04:42:29;;;;;;;1.45;0.90;;;;;;;14.89;73.53;99963.91;10257901;29;20306;-71
2023/04/25 04:47:33;;;;;;;2.28;0.90;;;;;;;15.03;72.72;99967.41;10245457;28;20058;-72
2023/04/25 04:52:35;;;;;;;2.80;1.00;;;;;;;15.23;71.56;99976.25;10256551;28;20050;-71
2023/04/25 04:57:38;;;;;;;1.73;0.80;;;;;;;14.84;70.40;99884.31;10268566;28;20053;-71
2023/04/25 05:02:39;;;;;;;9.30;0.98;;;;;;;15.44;69.08;99936.91;10279625;28;20566;-71
2023/04/25 05:07:40;;;;;;;6.00;0.85;;;;;;;16.05;68.91;99968.66;10258905;28;20190;-72
2023/04/25 05:12:41;;;;;;;2.40;0.77;;;;;;;16.32;67.57;99955.13;10297452;28;20038;-72
2023/04/25 05:17:42;;;;;;;2.17;0.80;;;;;;;16.55;67.05;99957.25;10297052;28;20046;-71
2023/04/25 05:22:42;;;;;;;2.85;0.80;;;;;;;16.69;66.29;99961.47;10295458;28;20075;-72
2023/04/25 05:27:43;;;;;;;3.13;1.10;;;;;;;16.05;65.97;99869.50;10256718;29;20807;-72
2023/04/25 05:32:44;;;;;;;2.38;0.90;;;;;;;16.66;66.03;99980.66;10256035;28;20046;-72
2023/04/25 05:37:45;;;;;;;4.00;0.70;;;;;;;16.80;65.58;99970.72;10247212;28;20187;-72
2023/04/25 05:42:46;;;;;;;3.22;0.80;;;;;;;17.14;65.15;99973.94;10294249;28;20093;-72
2023/04/25 05:47:46;;;;;;;6.85;0.98;;;;;;;17.18;64.46;99938.41;10262218;28;20059;-71
2023/04/25 05:52:47;;;;;;;2.28;0.73;;;;;;;17.94;62.48;99933.66;10275820;28;20053;-71
2023/04/25 05:57:48;;;;;;;2.35;0.65;;;;;;;18.36;60.53;99921.09;10255966;29;20042;-71
2023/04/25 06:02:49;;;;;;;1.00;0.60;;;;;;;18.16;59.02;99864.13;10255894;28;20097;-73
2023/04/25 06:07:50;;;;;;;2.47;0.60;;;;;;;18.87;58.11;99953.88;10245578;28;20511;-74
2023/04/25 06:12:51;;;;;;;0.90;0.47;;;;;;;18.62;57.81;99894.84;10255046;29;20566;-71
2023/04/25 06:17:52;;;;;;;1.75;0.80;;;;;;;19.04;57.05;99900.19;10254533;28;20093;-70
2023/04/25 06:22:53;;;;;;;3.15;0.60;;;;;;;19.76;56.19;99942.97;10254636;29;20053;-71
2023/04/25 06:27:54;;;;;;;0.88;0.50;;;;;;;19.65;55.25;99935.72;10255571;29;20046;-72
2023/04/25 06:32:55;;;;;;;1.65;0.60;;;;;;;19.98;54.48;99962.84;10254238;29;20050;-72
2023/04/25 06:37:56;;;;;;;8.20;1.05;;;;;;;20.22;53.72;99954.66;10237547;28;20082;-71
2023/04/25 06:42:56;;;;;;;2.03;0.65;;;;;;;20.47;52.89;99943.53;10278447;28;20079;-71
2023/04/25 06:47:57;;;;;;;1.33;0.50;;;;;;;20.34;52.50;99946.50;10257113;28;20066;-71
2023/04/25 06:52:58;;;;;;;1.02;0.60;;;;;;;20.09;51.64;99961.16;10290970;28;20050;-72
2023/04/25 06:57:59;;;;;;;1.10;0.50;;;;;;;19.77;52.09;99958.06;10266707;28;20133;-72
2023/04/25 07:03:00;;;;;;;0.98;0.50;;;;;;;19.79;52.78;99953.28;10255036;28;20450;-72
2023/04/25 07:08:01;;;;;;;1.77;0.60;;;;;;;19.84;52.87;99942.59;10266722;28;20046;-71
2023/04/25 07:13:02;;;;;;;7.03;1.00;;;;;;;19.51;52.42;99887.47;10292680;28;20046;-71
2023/04/25 07:18:03;;;;;;;2.50;0.60;;;;;;;19.95;51.93;99940.91;10292739;28;20098;-71
2023/04/25 07:23:03;;;;;;;0.80;0.50;;;;;;;19.83;52.00;99911.31;10284739;28;20047;-72
2023/04/25 07:28:04;;;;;;;3.13;0.60;;;;;;;20.07;51.56;99965.97;10251751;29;20039;-72
2023/04/25 07:33:05;;;;;;;2.60;0.57;;;;;;;19.87;52.77;99952.09;10274630;28;20051;-71
2023/04/25 07:38:06;;;;;;;2.70;0.57;;;;;;;19.70;52.60;99971.69;10285183;28;20035;-70
2023/04/25 07:43:07;;;;;;;2.28;0.50;;;;;;;19.65;51.86;99959.97;10285376;28;20047;-71
2023/04/25 07:48:08;;;;;;;1.15;0.50;;;;;;;19.89;52.25;99958.88;10283283;28;20058;-70
2023/04/25 07:53:10;;;;;;;1.63;0.60;;;;;;;19.79;52.26;99977.53;10285004;28;20042;-71
2023/04/25 07:58:11;;;;;;;3.45;0.98;;;;;;;19.60;52.00;99985.75;10286750;28;20129;-71
2023/04/25 08:03:12;;;;;;;1.90;0.90;;;;;;;19.11;52.17;99919.72;10283915;28;20046;-69
2023/04/25 08:08:13;;;;;;;2.38;0.80;;;;;;;19.33;52.45;99987.28;10281807;28;20499;-70
2023/04/25 08:13:14;;;;;;;2.88;0.80;;;;;;;19.17;52.73;99980.69;10293701;28;20047;-70
2023/04/25 08:18:14;;;;;;;1.65;0.70;;;;;;;18.83;53.88;99977.75;10276793;28;20107;-70
2023/04/25 08:23:15;;;;;;;1.38;0.70;;;;;;;18.69;54.52;99976.25;10290569;28;20053;-70
2023/04/25 08:28:16;;;;;;;1.92;0.75;;;;;;;18.65;54.87;99986.66;10293871;28;20101;-70
2023/04/25 08:33:17;;;;;;;1.80;0.52;;;;;;;18.67;54.35;99983.75;10293953;28;20042;-70
2023/04/25 08:38:18;;;;;;;1.63;0.70;;;;;;;18.81;54.25;99990.59;10296151;28;20039;-70
2023/04/25 08:43:20;;;;;;;4.65;0.88;;;;;;;18.66;54.00;99988.31;10297921;28;20074;-71
2023/04/25 08:48:21;;;;;;;1.73;0.68;;;;;;;18.31;54.98;99974.75;10298805;28;20070;-72
2023/04/25 08:53:26;;;;;;;6.03;0.88;;;;;;;18.24;56.68;99990.94;10298503;28;20117;-70
2023/04/25 08:58:28;;;;;;;1.30;0.70;;;;;;;17.97;58.01;99968.16;10279945;28;20586;-71
2023/04/25 09:03:29;;;;;;;3.83;1.05;;;;;;;17.77;59.76;99993.41;10287669;28;20130;-75
2023/04/25 09:08:30;;;;;;;1.77;0.70;;;;;;;17.62;60.09;100000.13;10258510;29;20066;-71
2023/04/25 09:13:30;;;;;;;2.13;0.77;;;;;;;17.22;60.11;99926.16;10240492;29;20046;-71
2023/04/25 09:18:33;;;;;;;6.78;0.90;;;;;;;17.43;60.45;99978.63;10256903;29;20079;-71
2023/04/25 09:23:51;;;;;;;1.50;0.65;;;;;;;17.48;61.81;100008.34;10256412;28;20487;-71
2023/04/25 09:29:06;;;;;;;1.70;0.75;;;;;;;17.08;61.90;99921.97;10256276;29;20035;-70
2023/04/25 09:34:09;;;;;;;1.17;0.68;;;;;;;17.53;61.35;99988.88;10257284;29;20043;-71
2023/04/25 09:39:16;;;;;;;2.35;0.68;;;;;;;17.79;61.39;99996.66;10256464;29;20039;-71
2023/04/25 09:44:24;;;;;;;2.00;0.77;;;;;;;18.16;61.04;99975.16;10255261;28;20070;-70
2023/04/25 09:49:28;;;;;;;3.83;0.90;;;;;;;18.90;59.16;99999.16;10255515;28;20054;-71
2023/04/25 09:54:28;;;;;;;3.63;1.40;;;;;;;19.53;57.43;99952.72;10256429;29;20047;-71
2023/04/25 09:59:31;;;;;;;2.85;0.90;;;;;;;20.10;55.87;99991.63;10254909;29;20497;-72
2023/04/25 10:04:35;;;;;;;5.90;1.58;;;;;;;19.82;55.59;99921.28;10255508;29;20438;-71
2023/04/25 10:09:40;;;;;;;1.92;0.90;;;;;;;20.61;54.77;99981.84;10255277;29;20039;-70
2023/04/25 10:14:41;;;;;;;1.63;0.60;;;;;;;19.78;55.38;99939.00;10255438;28;20043;-71
2023/04/25 10:19:43;;;;;;;2.13;0.80;;;;;;;19.63;56.32;99964.78;10254929;29;20039;-71
2023/04/25 10:24:46;;;;;;;1.95;0.90;;;;;;;19.99;55.67;99983.34;10254697;29;20051;-70
2023/04/25 10:30:14;;;;;;;2.43;0.90;;;;;;;19.59;55.56;99932.06;10253894;29;20491;-71
2023/04/25 10:35:23;;;;;;;2.08;0.80;;;;;;;19.65;55.68;100001.22;10253574;29;20047;-72
2023/04/25 10:40:24;;;;;;;3.92;2.22;;;;;;;19.51;56.40;99978.25;10253940;29;20039;-70
2023/04/25 10:45:25;;;;;;;3.75;1.65;;;;;;;19.61;56.04;99995.44;10253661;29;20066;-70
2023/04/25 10:50:38;;;;;;;2.80;1.45;;;;;;;19.88;56.07;100000.38;10236939;29;20055;-70
2023/04/25 10:55:51;;;;;;;3.78;1.30;;;;;;;19.53;55.85;99928.47;10253337;29;20451;-70
2023/04/25 11:00:53;;;;;;;;;;;;;;;20.38;55.22;99999.75;10253442;29;20043;-71
2023/04/25 11:05:54;;;;;;;2.17;1.25;;;;;;;20.64;54.45;99973.25;10252457;29;19918;-70
2023/04/25 11:10:55;;;;;;;1.80;0.80;;;;;;;20.55;53.92;99940.47;10253068;29;20042;-71
2023/04/25 11:15:56;;;;;;;6.30;0.90;;;;;;;20.64;53.38;99924.69;10253510;29;20055;-70
2023/04/25 11:20:57;;;;;;;1.95;0.80;;;;;;;20.84;53.48;99987.09;10252360;29;20455;-70
2023/04/25 11:25:57;;;;;;;4.05;0.88;;;;;;;20.70;53.17;99986.63;10251847;29;20570;-69
2023/04/25 11:30:58;;;;;;;4.70;0.80;;;;;;;20.41;53.61;99977.69;10252311;29;20038;-69
2023/04/25 11:35:59;;;;;;;2.22;1.05;;;;;;;20.17;53.81;99970.75;10251641;29;20499;-69
2023/04/25 11:41:00;;;;;;;2.38;0.70;;;;;;;19.70;53.97;99916.97;10252368;29;20039;-69
2023/04/25 11:46:01;;;;;;;3.70;1.00;;;;;;;19.83;54.38;99971.44;10252301;28;20507;-69
2023/04/25 11:51:02;;;;;;;1.80;0.88;;;;;;;19.47;54.56;99950.13;10251859;29;20054;-70
2023/04/25 11:56:11;;;;;;;3.00;1.10;;;;;;;19.48;55.17;99979.53;10251875;29;20560;-70
2023/04/25 12:01:11;;;;;;;6.65;1.00;;;;;;;19.52;55.35;100001.44;10252032;29;20082;-69
2023/04/25 12:06:17;;;;;;;1.98;0.60;;;;;;;19.28;55.21;99977.19;10251538;29;20063;-71
2023/04/25 12:11:21;;;;;;;9.00;0.85;;;;;;;19.30;55.68;99998.53;10252168;29;20388;-71
2023/04/25 12:16:22;;;;;;;1.55;0.70;;;;;;;18.93;55.47;99953.78;10251313;29;20039;-71
2023/04/25 12:21:23;;;;;;;2.70;0.60;;;;;;;19.03;56.00;99982.00;10251684;29;20076;-71
2023/04/25 12:26:25;;;;;;;1.88;0.68;;;;;;;19.10;56.08;99994.28;10250850;29;20047;-71
2023/04/25 12:31:26;;;;;;;2.30;0.88;;;;;;;18.84;56.37;99997.38;10252033;29;20519;-71
2023/04/25 12:36:27;;;;;;;1.33;0.63;;;;;;;17.99;56.59;99956.13;10251555;29;20125;-72
2023/04/25 12:41:27;;;;;;;1.58;0.60;;;;;;;18.00;56.63;100035.69;10251060;29;20058;-70
2023/04/25 12:46:28;;;;;;;2.67;0.80;;;;;;;17.31;56.54;99959.75;10261194;28;20059;-71
2023/04/25 12:51:29;;;;;;;2.50;0.60;;;;;;;17.56;56.72;100050.22;10250938;29;20043;-70
2023/04/25 12:56:30;;;;;;;1.65;0.32;;;;;;;17.39;56.54;100041.06;10265996;28;20045;-71
2023/04/25 13:01:31;;;;;;;2.47;0.55;;;;;;;17.30;56.86;100059.31;10268138;28;20051;-71
2023/04/25 13:06:32;;;;;;;0.70;0.40;;;;;;;16.74;57.21;99985.78;10291344;28;20113;-71
2023/04/25 13:11:33;;;;;;;1.45;0.43;;;;;;;17.26;57.36;100053.56;10287054;28;20077;-71
2023/04/25 13:16:34;;;;;;;1.83;0.47;;;;;;;16.89;57.97;99990.88;10265602;28;20546;-71
2023/04/25 13:21:35;;;;;;;1.25;0.40;;;;;;;17.05;59.33;100060.13;10256422;29;20071;-71
2023/04/25 13:26:36;;;;;;;2.17;0.50;;;;;;;16.88;60.32;100064.34;10296452;28;20049;-70
2023/04/25 13:31:37;;;;;;;2.78;1.35;;;;;;;16.71;61.48;100057.81;10290791;28;20403;-70
2023/04/25 13:36:37;;;;;;;1.42;0.68;;;;;;;16.54;62.19;100061.00;10289033;28;20789;-73
2023/04/25 13:41:38;;;;;;;3.15;0.40;;;;;;;16.30;63.58;100048.31;10266297;28;20054;-71
2023/04/25 13:46:39;;;;;;;10.90;4.03;;;;;;;15.87;64.28;99984.59;10276163;28;20055;-70
2023/04/25 13:51:42;;;;;;;1.40;0.75;;;;;;;16.17;64.98;100022.41;10288577;28;20035;-70
2023/04/25 13:56:42;;;;;;;0.93;0.52;;;;;;;16.39;65.62;100066.66;10290538;28;20177;-71
2023/04/25 14:01:43;;;;;;;4.35;0.90;;;;;;;15.73;66.30;99957.88;10284612;28;20062;-73
2023/04/25 14:06:44;;;;;;;10.10;4.43;;;;;;;16.32;66.93;100052.44;10274977;28;20150;-72
2023/04/25 14:11:45;;;;;;;3.38;1.30;;;;;;;15.88;67.18;99988.91;10290285;28;20042;-72
2023/04/25 14:16:50;;;;;;;2.30;0.90;;;;;;;16.35;68.14;100070.78;10290907;28;20041;-72
2023/04/25 14:21:51;;;;;;;3.17;1.08;;;;;;;16.36;67.26;100061.72;10290191;28;20195;-73
2023/04/25 14:26:51;;;;;;;1.95;0.75;;;;;;;16.40;67.53;100059.44;10289739;28;20042;-72
2023/04/25 14:31:53;;;;;;;2.70;0.60;;;;;;;16.39;67.81;100065.81;10273343;28;20082;-72
2023/04/25 14:36:54;;;;;;;2.00;0.93;;;;;;;16.33;68.23;100056.78;10247340;29;20101;-72
2023/04/25 14:41:55;;;;;;;3.65;1.50;;;;;;;16.33;68.65;100050.56;10264433;28;20043;-72
2023/04/25 14:46:56;;;;;;;5.20;0.93;;;;;;;15.87;68.71;99971.19;10260318;28;20498;-72
2023/04/25 14:51:57;;;;;;;2.60;1.10;;;;;;;16.05;69.27;99998.13;10293446;28;20039;-72
2023/04/25 14:56:58;;;;;;;4.50;1.23;;;;;;;15.81;69.52;99956.78;10293195;28;20046;-72
2023/04/25 15:01:58;;;;;;;1.95;0.88;;;;;;;16.44;69.54;100047.22;10288957;28;20046;-72
2023/04/25 15:06:59;;;;;;;1.40;0.70;;;;;;;15.95;69.51;99973.66;10268916;28;20055;-72
2023/04/25 15:12:00;;;;;;;2.83;0.80;;;;;;;16.42;69.62;100051.97;10251880;29;20401;-72
2023/04/25 15:17:02;;;;;;;2.42;0.85;;;;;;;16.40;69.78;100054.88;10252326;28;20039;-72
2023/04/25 15:22:03;;;;;;;3.38;0.90;;;;;;;16.35;70.31;100052.00;10252609;29;20180;-72
2023/04/25 15:27:04;;;;;;;1.65;0.80;;;;;;;16.31;70.41;100050.78;10253910;28;20041;-72
2023/04/25 15:32:05;;;;;;;2.55;0.90;;;;;;;16.21;70.84;100037.00;10260027;28;20063;-72
2023/04/25 15:37:06;;;;;;;3.38;1.10;;;;;;;15.85;71.14;99986.66;10252167;29;20058;-72
2023/04/25 15:42:07;;;;;;;3.33;1.20;;;;;;;16.25;71.32;100051.66;10253606;28;20510;-72
2023/04/25 15:47:15;;;;;;;3.70;1.10;;;;;;;16.23;72.60;100064.44;10266291;28;20055;-72
2023/04/25 15:52:20;;;;;;;2.60;1.10;;;;;;;16.17;72.38;100065.28;10251783;29;20054;-72
2023/04/25 15:57:21;;;;;;;4.18;1.15;;;;;;;16.02;72.76;100037.91;10252117;28;20046;-72
2023/04/25 16:02:22;;;;;;;10.13;1.17;;;;;;;16.11;73.29;100077.66;10250751;29;20157;-72
2023/04/25 16:07:23;;;;;;;6.45;1.30;;;;;;;16.06;73.58;100082.00;10250629;29;20190;-72
2023/04/25 16:12:24;;;;;;;10.60;5.10;;;;;;;16.03;73.95;100088.59;10261389;28;20422;-72
2023/04/25 16:17:25;;;;;;;15.55;7.03;;;;;;;15.46;74.17;99994.53;10320096;28;20074;-72
2023/04/25 16:22:26;;;;;;;14.95;6.13;;;;;;;15.52;74.50;100016.97;10325377;28;20041;-72
2023/04/25 16:27:27;;;;;;;8.75;4.72;;;;;;;15.81;75.01;100082.69;10310906;28;20051;-72
2023/04/25 16:32:28;;;;;;;14.55;6.80;;;;;;;15.61;75.21;100077.31;10315094;28;20398;-71
2023/04/25 16:37:29;;;;;;;14.18;6.55;;;;;;;15.48;76.29;100082.69;10327323;28;20125;-71
2023/04/25 16:42:30;;;;;;;15.23;6.18;;;;;;;15.16;77.21;100063.72;10333531;28;20078;-72
